Time;durP1;ratioP1;P1;durP2;ratioP2;P2;SDS_P1;SDS_P2;PMS_P1;PMS_P2;Temp;Humidity;BMP_temperature;BMP_pressure;BME280_temperature;BME280_humidity;BME280_pressure;Samples;Min_cycle;Max_cycle;Signal;HPM_P1;HPM_P2
2023/04/21 00:00:50;;;;;;;7.33;6.63;;;;;;;13.71;83.99;99034.47;5054780;28;20668;-69
2023/04/21 00:03:18;;;;;;;7.07;6.53;;;;;;;13.71;84.26;99026.47;5059441;28;20200;-69
2023/04/21 00:05:45;;;;;;;7.40;6.90;;;;;;;13.70;84.07;99024.03;5074999;28;20661;-69
2023/04/21 00:08:12;;;;;;;7.77;7.07;;;;;;;13.64;85.23;99028.41;5073295;28;20727;-69
2023/04/21 00:10:41;;;;;;;10.47;7.67;;;;;;;13.63;84.80;99020.63;5075176;28;20195;-69
2023/04/21 00:13:07;;;;;;;10.20;7.53;;;;;;;13.54;84.75;99022.81;5074636;28;20614;-70
2023/04/21 00:15:34;;;;;;;8.70;7.80;;;;;;;13.38;85.40;99023.44;5074942;28;20692;-69
2023/04/21 00:18:02;;;;;;;8.80;8.07;;;;;;;13.32;86.44;99024.31;5059375;28;20254;-70
2023/04/21 00:20:29;;;;;;;7.63;6.93;;;;;;;13.31;86.96;99022.69;5054841;28;20193;-69
2023/04/21 00:22:57;;;;;;;8.30;7.57;;;;;;;13.30;86.76;99020.25;5054990;28;20199;-69
2023/04/21 00:25:24;;;;;;;9.33;8.10;;;;;;;13.25;86.12;99023.63;5075209;28;20205;-69
2023/04/21 00:27:52;;;;;;;7.67;6.97;;;;;;;13.16;86.84;99022.31;5064985;28;20197;-68
2023/04/21 00:30:19;;;;;;;9.37;7.20;;;;;;;13.12;87.15;99018.44;5054160;28;20266;-69
2023/04/21 00:32:45;;;;;;;8.63;7.50;;;;;;;13.04;87.04;99013.41;5054197;28;20192;-68
2023/04/21 00:35:12;;;;;;;8.57;7.97;;;;;;;13.04;88.21;99010.75;5054260;28;20222;-69
2023/04/21 00:37:40;;;;;;;11.67;7.87;;;;;;;12.98;88.14;99011.63;5059227;28;20227;-69
2023/04/21 00:40:08;;;;;;;8.33;7.63;;;;;;;12.90;88.77;99011.09;5072482;28;20204;-69
2023/04/21 00:42:35;;;;;;;10.27;7.80;;;;;;;12.87;89.49;99025.66;5053794;28;20666;-69
2023/04/21 00:45:03;;;;;;;9.10;7.77;;;;;;;12.87;89.57;99015.00;5054203;28;20257;-70
2023/04/21 00:47:30;;;;;;;8.77;7.87;;;;;;;12.83;89.46;99008.47;5056912;28;20196;-69
2023/04/21 00:49:57;;;;;;;10.07;8.00;;;;;;;12.79;89.16;99006.50;5073926;28;20665;-70
2023/04/21 00:52:24;;;;;;;9.07;8.27;;;;;;;12.73;89.19;99010.84;5073873;28;20192;-69
2023/04/21 00:54:51;;;;;;;8.60;7.60;;;;;;;12.67;89.43;99006.44;5074025;28;20202;-69
2023/04/21 00:57:17;;;;;;;10.07;7.30;;;;;;;12.60;90.25;99000.34;5071788;28;20264;-69
2023/04/21 00:59:44;;;;;;;11.93;7.57;;;;;;;12.66;89.74;99012.75;5053813;28;20242;-69
2023/04/21 01:02:14;;;;;;;9.30;8.40;;;;;;;12.64;89.88;99009.53;5054033;28;20195;-69
2023/04/21 01:04:41;;;;;;;8.17;7.43;;;;;;;12.55;89.89;99000.19;5070667;28;20237;-70
2023/04/21 01:07:08;;;;;;;8.40;7.70;;;;;;;12.56;90.21;99004.47;5073996;28;20206;-70
2023/04/21 01:09:35;;;;;;;9.77;8.90;;;;;;;12.53;90.07;98988.13;5072794;28;20723;-69
2023/04/21 01:12:03;;;;;;;8.67;8.10;;;;;;;12.65;90.41;98999.66;5073568;28;20199;-70
2023/04/21 01:14:30;;;;;;;8.80;8.07;;;;;;;12.64;90.19;99001.53;5073987;28;20191;-69
2023/04/21 01:16:57;;;;;;;8.87;8.10;;;;;;;12.64;89.75;99001.53;5073715;28;20246;-69
2023/04/21 01:19:28;;;;;;;8.63;7.90;;;;;;;12.55;89.78;98992.22;5055839;28;20199;-69
2023/04/21 01:21:59;;;;;;;8.67;7.97;;;;;;;12.66;89.62;99009.31;5053708;28;20192;-69
2023/04/21 01:24:36;;;;;;;9.33;8.33;;;;;;;12.65;89.88;98999.66;5053465;28;20203;-68
2023/04/21 01:27:02;;;;;;;9.70;8.67;;;;;;;12.64;90.25;99004.19;5053706;28;20267;-69
2023/04/21 01:29:32;;;;;;;9.27;8.57;;;;;;;12.57;90.55;98998.13;5069934;28;20219;-69
2023/04/21 01:32:03;;;;;;;9.50;8.67;;;;;;;12.61;90.57;99003.81;5073615;28;20196;-68
2023/04/21 01:34:30;;;;;;;9.70;8.80;;;;;;;12.55;90.31;98994.03;5072868;28;20713;-68
2023/04/21 01:36:58;;;;;;;9.27;7.93;;;;;;;12.38;91.44;98977.84;5072902;28;20202;-69
2023/04/21 01:39:25;;;;;;;9.37;8.47;;;;;;;12.47;92.04;99000.47;5056081;28;20195;-69
2023/04/21 01:41:54;;;;;;;14.90;9.83;;;;;;;12.39;92.26;98994.59;5053214;28;20192;-69
2023/04/21 01:44:21;;;;;;;10.27;9.17;;;;;;;12.25;92.66;98993.91;5053011;28;20249;-69
2023/04/21 01:46:47;;;;;;;11.40;10.40;;;;;;;12.17;92.87;99004.84;5053237;28;20196;-70
2023/04/21 01:49:14;;;;;;;11.10;10.03;;;;;;;12.10;93.35;99000.59;5067024;28;20653;-69
2023/04/21 01:51:41;;;;;;;11.67;10.50;;;;;;;11.99;93.91;99009.28;5072655;28;20202;-69
2023/04/21 01:54:09;;;;;;;11.17;10.13;;;;;;;11.91;94.15;98999.72;5072600;28;20260;-69
2023/04/21 01:56:36;;;;;;;10.83;9.97;;;;;;;11.82;94.91;98993.06;5072976;28;20252;-70
2023/04/21 01:59:03;;;;;;;11.03;10.03;;;;;;;11.74;95.55;99001.28;5059182;28;20248;-69
2023/04/21 02:01:30;;;;;;;12.47;11.43;;;;;;;11.68;96.15;99007.47;5052939;28;20643;-69
2023/04/21 02:03:56;;;;;;;11.43;10.53;;;;;;;11.72;96.99;99008.66;5062956;28;20190;-69
2023/04/21 02:06:23;;;;;;;12.30;11.23;;;;;;;11.75;96.72;99013.56;5072263;28;20252;-70
2023/04/21 02:08:50;;;;;;;11.57;10.63;;;;;;;11.75;96.89;99008.25;5070982;28;20639;-70
2023/04/21 02:11:18;;;;;;;11.97;10.97;;;;;;;11.72;96.19;99008.66;5072700;28;20186;-70
2023/04/21 02:13:46;;;;;;;12.37;11.17;;;;;;;11.60;96.12;98988.28;5072750;28;20194;-71
2023/04/21 02:16:12;;;;;;;11.57;10.47;;;;;;;11.75;96.00;99013.56;5071235;28;20678;-71
2023/04/21 02:18:40;;;;;;;24.83;11.23;;;;;;;11.77;95.74;99019.50;5062323;28;20676;-72
2023/04/21 02:21:07;;;;;;;11.30;10.03;;;;;;;11.80;95.44;99013.72;5052307;28;20238;-71
2023/04/21 02:23:33;;;;;;;10.73;9.70;;;;;;;11.73;95.80;99010.31;5052171;28;20200;-71
2023/04/21 02:26:00;;;;;;;10.77;9.93;;;;;;;11.74;95.67;99014.59;5052250;28;20194;-71
2023/04/21 02:28:28;;;;;;;10.70;9.90;;;;;;;11.71;94.92;99009.69;5059346;28;20243;-70
2023/04/21 02:30:55;;;;;;;10.40;9.40;;;;;;;11.60;95.27;99010.38;5060226;28;20238;-70
2023/04/21 02:33:22;;;;;;;12.07;9.90;;;;;;;11.50;95.32;98994.06;5052011;28;20198;-70
2023/04/21 02:35:49;;;;;;;9.47;8.60;;;;;;;11.48;94.80;99012.09;5052376;28;20200;-70
2023/04/21 02:38:15;;;;;;;10.90;9.53;;;;;;;11.47;94.90;99005.09;5052176;28;20230;-70
2023/04/21 02:40:42;;;;;;;9.47;8.73;;;;;;;11.35;95.02;98998.84;5060270;28;20199;-70
2023/04/21 02:43:09;;;;;;;12.03;9.80;;;;;;;11.35;95.36;98996.16;5072153;28;20223;-70
2023/04/21 02:45:38;;;;;;;9.37;8.77;;;;;;;11.26;95.18;99000.13;5072426;28;20198;-70
2023/04/21 02:48:05;;;;;;;9.63;8.73;;;;;;;11.15;95.18;98999.97;5072372;28;20193;-70
2023/04/21 02:50:32;;;;;;;11.43;8.57;;;;;;;11.13;95.19;98994.88;5063977;28;20288;-70
2023/04/21 02:52:58;;;;;;;9.53;8.73;;;;;;;11.18;95.22;98996.91;5052024;28;20250;-70
2023/04/21 02:55:25;;;;;;;9.10;8.40;;;;;;;11.15;94.55;99003.44;5050992;28;20738;-71
2023/04/21 02:57:52;;;;;;;9.83;8.93;;;;;;;11.16;94.92;98988.31;5051683;28;20291;-71
2023/04/21 03:00:19;;;;;;;9.63;8.50;;;;;;;11.17;94.94;98993.41;5057626;28;20260;-71
2023/04/21 03:02:47;;;;;;;15.40;10.13;;;;;;;11.21;94.66;98997.28;5072107;28;20196;-71
2023/04/21 03:05:14;;;;;;;20.23;11.80;;;;;;;11.16;95.04;98994.44;5072247;28;20293;-71
2023/04/21 03:07:41;;;;;;;17.10;10.90;;;;;;;11.11;94.89;99001.41;5071877;28;20189;-71
2023/04/21 03:10:08;;;;;;;13.83;9.43;;;;;;;11.08;95.45;98997.34;5070273;28;20221;-72
2023/04/21 03:12:34;;;;;;;20.37;9.93;;;;;;;11.07;95.65;99000.22;5071907;28;20192;-72
2023/04/21 03:15:01;;;;;;;12.67;9.97;;;;;;;11.03;94.95;98999.81;5072037;28;20196;-71
2023/04/21 03:17:28;;;;;;;16.37;11.33;;;;;;;10.96;95.30;99005.13;5071666;28;20192;-71
2023/04/21 03:19:56;;;;;;;17.27;11.43;;;;;;;10.87;95.47;99002.94;5059163;28;20637;-70
2023/04/21 03:22:23;;;;;;;15.60;10.77;;;;;;;10.88;95.21;99009.88;5055657;28;20662;-71
2023/04/21 03:24:49;;;;;;;13.80;10.67;;;;;;;10.86;96.52;99006.59;5055885;28;20250;-71
2023/04/21 03:27:16;;;;;;;12.83;10.97;;;;;;;10.86;95.63;99006.59;5055832;28;20248;-71
2023/04/21 03:29:43;;;;;;;12.50;11.23;;;;;;;10.88;96.67;99001.91;5068893;28;20640;-71
2023/04/21 03:32:09;;;;;;;10.50;9.60;;;;;;;10.83;96.07;98996.44;5075414;28;20192;-71
2023/04/21 03:34:36;;;;;;;11.50;10.50;;;;;;;10.73;95.49;99011.97;5075310;28;20623;-71
2023/04/21 03:37:04;;;;;;;12.00;10.80;;;;;;;10.73;96.29;99017.28;5069772;28;20197;-72
2023/04/21 03:39:31;;;;;;;13.63;10.97;;;;;;;10.73;96.88;99018.09;5055418;28;20650;-71
2023/04/21 03:41:57;;;;;;;14.07;10.90;;;;;;;10.79;96.91;99019.13;5056540;28;20201;-71
2023/04/21 03:44:25;;;;;;;11.50;10.47;;;;;;;10.80;96.46;99005.63;5055474;28;20247;-71
2023/04/21 03:46:52;;;;;;;11.13;10.03;;;;;;;10.90;96.67;99023.75;5055462;28;20585;-72
2023/04/21 03:49:19;;;;;;;14.50;11.07;;;;;;;11.04;96.69;99031.47;5054991;28;20222;-72
2023/04/21 03:51:46;;;;;;;11.67;10.67;;;;;;;11.24;95.91;99026.09;5055405;28;20193;-73
2023/04/21 03:54:14;;;;;;;14.23;11.80;;;;;;;11.47;95.75;99029.03;5074223;28;20193;-73
2023/04/21 03:56:41;;;;;;;14.20;12.43;;;;;;;11.72;94.51;99034.47;5074632;28;20743;-71
2023/04/21 03:59:08;;;;;;;21.53;12.07;;;;;;;11.84;92.33;99033.56;5075206;28;20254;-72
2023/04/21 04:01:35;;;;;;;17.03;12.67;;;;;;;12.03;92.23;99037.94;5074865;28;20193;-70
2023/04/21 04:04:01;;;;;;;20.40;11.97;;;;;;;12.30;91.78;99043.88;5073359;28;20243;-70
2023/04/21 04:06:28;;;;;;;19.03;12.97;;;;;;;12.64;90.16;99049.50;5074786;28;20249;-70
2023/04/21 04:08:55;;;;;;;19.83;13.83;;;;;;;13.06;88.01;99040.66;5074234;28;20682;-69
2023/04/21 04:11:23;;;;;;;48.03;14.83;;;;;;;13.41;85.63;99055.00;5071969;28;20214;-70
2023/04/21 04:13:50;;;;;;;130.20;18.53;;;;;;;13.65;84.31;99056.75;5071289;28;20213;-69
2023/04/21 04:16:17;;;;;;;20.33;12.27;;;;;;;13.83;83.35;99062.03;5073780;28;20191;-71
2023/04/21 04:18:44;;;;;;;12.37;11.27;;;;;;;14.11;82.24;99054.22;5071388;28;20572;-71
2023/04/21 04:21:11;;;;;;;16.77;9.97;;;;;;;14.43;80.68;99055.59;5074164;28;20223;-70
2023/04/21 04:23:37;;;;;;;20.27;11.33;;;;;;;14.74;79.61;99051.72;5070664;28;20196;-71
2023/04/21 04:26:04;;;;;;;16.23;11.00;;;;;;;15.00;78.26;99060.06;5071226;28;20249;-69
2023/04/21 04:28:33;;;;;;;13.77;8.77;;;;;;;15.30;80.81;99044.69;5072712;28;20758;-69
2023/04/21 04:31:01;;;;;;;18.30;10.67;;;;;;;15.46;76.96;99057.34;5073649;28;20211;-69
2023/04/21 04:33:28;;;;;;;11.90;10.90;;;;;;;15.59;76.09;99057.06;5070237;28;20192;-71
2023/04/21 04:35:55;;;;;;;10.53;9.33;;;;;;;15.95;78.93;99058.53;5073607;28;20196;-71
2023/04/21 04:38:23;;;;;;;11.57;8.23;;;;;;;16.45;78.27;99061.31;5073177;28;20644;-69
2023/04/21 04:40:53;;;;;;;10.33;9.27;;;;;;;16.76;71.67;99082.16;5071539;28;20195;-68
2023/04/21 04:43:20;;;;;;;13.40;10.10;;;;;;;16.82;71.06;99090.03;5071517;28;20250;-67
2023/04/21 04:45:48;;;;;;;13.33;9.80;;;;;;;16.75;71.10;99080.53;5072937;28;20192;-73
2023/04/21 04:48:15;;;;;;;17.97;9.50;;;;;;;16.82;70.48;99076.63;5073483;28;20188;-72
2023/04/21 04:50:41;;;;;;;23.77;11.40;;;;;;;17.06;69.53;99083.41;5069702;28;20671;-72
2023/04/21 04:53:08;;;;;;;10.50;9.57;;;;;;;16.92;70.59;99086.69;5070481;28;20191;-72
2023/04/21 04:55:35;;;;;;;40.13;11.80;;;;;;;17.17;68.38;99092.41;5072674;28;20191;-72
2023/04/21 04:58:02;;;;;;;17.90;10.43;;;;;;;16.98;68.01;99099.13;5072995;28;20277;-72
2023/04/21 05:00:30;;;;;;;16.30;10.70;;;;;;;16.88;68.71;99082.88;5069817;28;20196;-72
2023/04/21 05:02:58;;;;;;;14.03;9.80;;;;;;;17.19;66.44;99084.94;5071651;28;20196;-72
2023/04/21 05:05:25;;;;;;;10.77;9.67;;;;;;;17.97;64.44;99104.19;5071848;28;20238;-72
2023/04/21 05:07:52;;;;;;;27.80;11.10;;;;;;;18.09;63.84;99104.84;5072686;28;20668;-72
2023/04/21 05:10:19;;;;;;;65.30;12.60;;;;;;;18.23;63.12;99097.97;5072571;28;20216;-73
2023/04/21 05:12:45;;;;;;;23.67;8.90;;;;;;;18.47;60.50;99110.91;5071061;28;20268;-72
2023/04/21 05:15:12;;;;;;;12.87;8.13;;;;;;;18.97;59.51;99110.44;5072324;28;20222;-72
2023/04/21 05:17:39;;;;;;;10.77;7.53;;;;;;;19.17;59.39;99111.41;5072072;28;20202;-71
2023/04/21 05:20:08;;;;;;;7.57;6.87;;;;;;;19.37;56.78;99118.81;5072919;28;20204;-71
2023/04/21 05:22:37;;;;;;;19.03;7.53;;;;;;;19.57;55.92;99116.22;5071699;28;20247;-72
2023/04/21 05:25:04;;;;;;;55.33;8.47;;;;;;;19.89;54.61;99103.41;5071736;28;22101;-72
2023/04/21 05:27:31;;;;;;;9.07;6.57;;;;;;;20.09;54.31;99093.50;5073423;28;20209;-71
2023/04/21 05:29:57;;;;;;;11.47;6.37;;;;;;;20.05;53.83;99091.59;5072944;28;20231;-70
2023/04/21 05:32:24;;;;;;;54.60;9.27;;;;;;;20.14;53.23;99096.19;5072483;28;20226;-71
2023/04/21 05:34:51;;;;;;;6.37;5.87;;;;;;;20.44;52.78;99090.84;5072400;28;20196;-73
2023/04/21 05:37:19;;;;;;;10.00;5.57;;;;;;;20.77;52.56;99094.88;5072774;28;20196;-73
2023/04/21 05:39:46;;;;;;;11.63;5.67;;;;;;;20.96;50.74;99098.69;5070179;28;20637;-70
2023/04/21 05:42:12;;;;;;;8.47;5.97;;;;;;;20.70;50.83;99091.63;5071317;28;20246;-72
2023/04/21 05:44:39;;;;;;;7.43;4.77;;;;;;;21.00;50.63;99088.94;5072440;28;20198;-71
2023/04/21 05:47:06;;;;;;;10.90;5.17;;;;;;;20.62;50.94;99086.78;5072152;28;20192;-73
2023/04/21 05:49:33;;;;;;;5.60;5.20;;;;;;;20.54;50.61;99079.22;5071134;28;20192;-77
2023/04/21 05:52:00;;;;;;;5.50;5.00;;;;;;;21.06;50.34;99077.03;5072677;28;20223;-81
2023/04/21 05:54:28;;;;;;;11.20;5.40;;;;;;;21.18;50.53;99069.44;5072199;28;20253;-72
2023/04/21 05:56:55;;;;;;;33.20;6.17;;;;;;;21.49;49.21;99075.56;5071770;28;20723;-77
2023/04/21 05:59:22;;;;;;;5.87;4.50;;;;;;;21.76;48.90;99071.41;5054468;28;20573;-78
2023/04/21 06:01:49;;;;;;;15.43;5.50;;;;;;;21.61;47.62;99067.94;5052477;28;20201;-80
2023/04/21 06:04:15;;;;;;;8.23;5.10;;;;;;;21.70;46.48;99067.13;5061694;28;20207;-83
2023/04/21 06:06:43;;;;;;;10.77;5.20;;;;;;;21.34;45.89;99065.63;5070416;28;20657;-78
2023/04/21 06:09:09;;;;;;;9.23;4.97;;;;;;;21.37;46.26;99066.97;5069832;28;20204;-75
2023/04/21 06:11:37;;;;;;;120.17;11.70;;;;;;;21.17;45.30;99058.91;5062305;28;20652;-76
2023/04/21 06:14:04;;;;;;;9.93;4.83;;;;;;;21.21;45.13;99060.81;5064360;28;20192;-74
2023/04/21 06:16:32;;;;;;;7.57;4.70;;;;;;;21.16;45.17;99060.00;5071422;28;20632;-72
2023/04/21 06:18:59;;;;;;;9.03;4.90;;;;;;;21.46;44.78;99066.13;5070836;28;20230;-72
2023/04/21 06:21:26;;;;;;;8.27;4.60;;;;;;;21.55;44.74;99069.06;5071824;28;20222;-73
2023/04/21 06:23:53;;;;;;;5.67;4.70;;;;;;;21.45;44.22;99067.22;5070074;28;20192;-71
2023/04/21 06:26:20;;;;;;;32.87;6.73;;;;;;;21.23;44.09;99066.72;5071579;28;20234;-78
2023/04/21 06:28:48;;;;;;;40.67;7.80;;;;;;;21.03;44.39;99066.78;5071372;28;20635;-72
2023/04/21 06:31:14;;;;;;;7.93;5.27;;;;;;;20.85;44.49;99064.63;5070849;28;20223;-70
2023/04/21 06:33:41;;;;;;;23.40;6.03;;;;;;;20.94;44.75;99052.22;5069376;28;20272;-72
2023/04/21 06:36:08;;;;;;;5.57;5.00;;;;;;;20.90;43.82;99056.53;5071356;28;20196;-71
2023/04/21 06:38:35;;;;;;;34.07;6.07;;;;;;;20.61;44.56;99052.78;5071568;28;20216;-71
2023/04/21 06:41:03;;;;;;;13.57;6.03;;;;;;;20.51;45.57;99050.91;5069930;28;20286;-71
2023/04/21 06:43:30;;;;;;;6.07;5.77;;;;;;;20.81;44.07;99050.06;5069690;28;20224;-70
2023/04/21 06:45:58;;;;;;;7.13;5.30;;;;;;;20.70;44.63;99048.44;5070574;28;20254;-78
2023/04/21 06:48:25;;;;;;;10.00;5.83;;;;;;;20.61;44.61;99047.38;5070326;28;20253;-72
2023/04/21 06:50:52;;;;;;;10.80;5.47;;;;;;;20.94;45.22;99041.41;5069854;28;20223;-68
2023/04/21 06:53:20;;;;;;;13.73;5.73;;;;;;;21.19;43.95;99049.44;5068826;28;20192;-72
2023/04/21 06:55:47;;;;;;;6.03;5.20;;;;;;;21.41;43.43;99047.22;5068119;28;20211;-70
2023/04/21 06:58:14;;;;;;;14.47;5.40;;;;;;;21.21;43.02;99052.69;5069200;28;20253;-72
2023/04/21 07:00:41;;;;;;;7.87;5.20;;;;;;;21.02;43.90;99043.56;5069221;28;20604;-73
2023/04/21 07:03:09;;;;;;;20.50;6.33;;;;;;;20.96;43.99;99060.88;5071191;28;20550;-69
2023/04/21 07:05:36;;;;;;;7.27;5.13;;;;;;;21.00;44.08;99061.94;5068976;28;20195;-69
2023/04/21 07:08:02;;;;;;;5.83;5.20;;;;;;;21.56;43.67;99060.66;5068422;28;20204;-70
2023/04/21 07:10:30;;;;;;;9.87;5.30;;;;;;;21.78;44.26;99046.78;5055920;28;20216;-71
2023/04/21 07:12:56;;;;;;;7.07;6.07;;;;;;;22.28;43.62;99068.94;5063783;28;20192;-73
2023/04/21 07:15:23;;;;;;;7.87;5.50;;;;;;;22.77;42.29;99072.34;5056529;28;20242;-75
2023/04/21 07:17:50;;;;;;;17.93;6.17;;;;;;;23.01;40.15;99073.19;5068947;28;20199;-74
2023/04/21 07:20:18;;;;;;;14.50;5.57;;;;;;;22.75;43.20;99066.38;5054763;28;20744;-73
2023/04/21 07:22:45;;;;;;;31.27;7.40;;;;;;;22.75;40.89;99071.00;5050084;28;20280;-76
2023/04/21 07:25:11;;;;;;;10.93;5.80;;;;;;;22.85;40.64;99068.19;5061861;28;20261;-73
2023/04/21 07:27:39;;;;;;;16.40;5.70;;;;;;;22.38;42.04;99060.72;5069740;28;20738;-73
2023/04/21 07:30:07;;;;;;;69.70;9.77;;;;;;;22.54;41.15;99054.13;5067862;28;20191;-73
2023/04/21 07:32:36;;;;;;;9.40;5.97;;;;;;;22.42;41.81;99058.28;5068220;28;20216;-74
2023/04/21 07:35:02;;;;;;;11.80;5.63;;;;;;;22.73;41.17;99060.47;5068235;28;20204;-74
2023/04/21 07:37:31;;;;;;;6.37;5.77;;;;;;;22.84;41.57;99053.88;5068606;28;20273;-71
2023/04/21 07:39:57;;;;;;;6.70;5.67;;;;;;;22.63;40.88;99057.84;5068874;28;20216;-73
2023/04/21 07:42:25;;;;;;;10.07;6.40;;;;;;;22.79;40.89;99051.19;5066952;28;20200;-74
2023/04/21 07:44:53;;;;;;;35.00;8.43;;;;;;;23.20;40.50;99049.69;5068363;28;20199;-73
2023/04/21 07:47:20;;;;;;;11.67;5.97;;;;;;;22.54;41.21;99050.63;5068939;28;20576;-70
2023/04/21 07:49:47;;;;;;;6.23;5.67;;;;;;;22.68;42.75;99046.16;5062756;28;20200;-72
2023/04/21 07:52:14;;;;;;;12.33;6.40;;;;;;;22.86;40.71;99054.38;5064924;28;20273;-74
2023/04/21 07:54:42;;;;;;;8.13;6.50;;;;;;;22.61;41.66;99056.50;5065083;28;20196;-72
2023/04/21 07:57:08;;;;;;;6.17;5.57;;;;;;;22.71;42.15;99051.78;5067734;28;20195;-73
2023/04/21 07:59:35;;;;;;;6.40;5.90;;;;;;;22.62;42.35;99007.47;5070089;28;20279;-73
2023/04/21 08:02:04;;;;;;;19.43;7.00;;;;;;;22.71;42.43;99051.78;5068746;28;20207;-73
2023/04/21 08:04:31;;;;;;;25.17;6.57;;;;;;;22.96;41.47;99048.03;5064583;28;20204;-72
2023/04/21 08:06:58;;;;;;;6.80;5.53;;;;;;;23.00;40.84;99052.63;5069811;28;20633;-72
2023/04/21 08:09:26;;;;;;;7.97;6.27;;;;;;;22.76;40.80;99054.47;5063568;28;20666;-72
2023/04/21 08:11:54;;;;;;;11.67;6.83;;;;;;;22.52;41.50;99050.91;5070765;28;20281;-73
2023/04/21 08:14:21;;;;;;;20.57;6.40;;;;;;;22.91;41.39;99043.47;5072132;28;20285;-75
2023/04/21 08:16:48;;;;;;;7.20;6.60;;;;;;;22.80;40.51;99044.69;5071728;28;20208;-73
2023/04/21 08:19:14;;;;;;;9.83;7.00;;;;;;;22.57;40.80;99033.78;5070906;28;20272;-73
2023/04/21 08:21:41;;;;;;;7.23;6.63;;;;;;;22.81;40.73;99032.75;5070100;28;20681;-71
2023/04/21 08:24:08;;;;;;;13.60;7.70;;;;;;;22.91;40.71;99027.22;5067172;28;20223;-71
2023/04/21 08:26:35;;;;;;;10.40;8.53;;;;;;;23.01;40.04;99029.84;5071345;28;20250;-71
2023/04/21 08:29:05;;;;;;;6.53;5.57;;;;;;;23.11;39.10;99024.28;5067000;28;20230;-70
2023/04/21 08:31:32;;;;;;;40.37;27.27;;;;;;;23.71;40.56;99034.41;5070027;28;20217;-71
2023/04/21 08:34:00;;;;;;;12.80;9.77;;;;;;;23.90;36.92;99037.97;5069269;28;20204;-70
2023/04/21 08:36:27;;;;;;;10.37;7.83;;;;;;;23.70;37.09;99043.66;5067560;28;20205;-68
2023/04/21 08:38:54;;;;;;;10.17;9.10;;;;;;;24.11;37.09;99033.88;5071717;28;20295;-68
2023/04/21 08:41:21;;;;;;;10.87;9.00;;;;;;;23.82;36.27;99035.91;5071132;28;20278;-70
2023/04/21 08:43:48;;;;;;;58.60;36.30;;;;;;;24.17;38.34;99032.69;5070132;28;20281;-69
2023/04/21 08:46:16;;;;;;;38.03;24.10;;;;;;;24.42;39.08;99023.34;5070757;28;20197;-71
2023/04/21 08:48:43;;;;;;;14.23;6.37;;;;;;;24.22;35.42;99029.88;5071381;28;20255;-70
2023/04/21 08:51:10;;;;;;;31.03;10.57;;;;;;;24.61;37.19;99013.25;5071636;28;20272;-72
2023/04/21 08:53:37;;;;;;;5.83;5.20;;;;;;;24.63;34.57;99020.00;5070946;28;20201;-72
2023/04/21 08:56:04;;;;;;;11.60;10.47;;;;;;;24.78;36.27;99019.72;5070014;28;20221;-68
2023/04/21 08:58:31;;;;;;;9.97;6.13;;;;;;;24.59;34.40;99008.06;5064321;28;20764;-72
2023/04/21 09:00:58;;;;;;;16.27;11.13;;;;;;;24.39;36.81;99013.06;5071491;28;20199;-69
2023/04/21 09:03:27;;;;;;;24.50;6.93;;;;;;;24.77;35.36;99020.84;5070016;28;20256;-70
2023/04/21 09:05:58;;;;;;;19.37;9.57;;;;;;;24.83;34.64;99014.19;5067794;28;20203;-69
2023/04/21 09:08:26;;;;;;;7.30;5.73;;;;;;;24.76;34.31;99013.81;5070019;28;20203;-70
2023/04/21 09:10:54;;;;;;;13.87;7.13;;;;;;;25.04;33.83;99020.06;5070151;28;20202;-71
2023/04/21 09:13:22;;;;;;;6.87;4.43;;;;;;;24.69;33.49;99002.50;5069641;28;20241;-71
2023/04/21 09:15:51;;;;;;;12.53;5.10;;;;;;;24.58;33.30;99011.09;5065829;28;20203;-69
2023/04/21 09:18:19;;;;;;;7.90;5.33;;;;;;;24.24;33.86;98994.31;5054651;28;20294;-68
2023/04/21 09:20:50;;;;;;;6.23;4.77;;;;;;;24.42;33.67;98988.81;5065461;28;20195;-68
2023/04/21 09:23:17;;;;;;;24.23;5.97;;;;;;;24.65;33.12;98996.06;5062588;28;20264;-67
2023/04/21 09:25:45;;;;;;;14.43;12.80;;;;;;;24.64;36.10;98980.88;5065837;28;20259;-70
2023/04/21 09:28:14;;;;;;;7.27;5.73;;;;;;;25.12;33.30;98980.50;5067306;28;20281;-70
2023/04/21 09:30:42;;;;;;;7.67;4.73;;;;;;;24.70;33.26;98982.38;5068295;28;20207;-70
2023/04/21 09:33:15;;;;;;;5.20;4.83;;;;;;;24.59;35.84;98975.47;5066849;28;20222;-74
2023/04/21 09:35:42;;;;;;;6.47;5.37;;;;;;;24.82;33.46;98976.44;5067246;28;20661;-73
2023/04/21 09:38:12;;;;;;;17.93;5.07;;;;;;;24.98;34.09;98975.03;5056185;28;20632;-72
2023/04/21 09:40:40;;;;;;;7.87;4.57;;;;;;;24.77;33.10;98969.22;5063647;28;20665;-71
2023/04/21 09:43:07;;;;;;;18.73;6.40;;;;;;;25.11;33.33;98957.94;5057568;28;20302;-71
2023/04/21 09:45:34;;;;;;;13.43;6.30;;;;;;;25.49;33.08;98961.25;5064123;28;20258;-69
2023/04/21 09:48:01;;;;;;;28.30;6.03;;;;;;;25.55;32.58;98960.81;5064330;28;20203;-72
2023/04/21 09:50:29;;;;;;;6.47;4.80;;;;;;;25.20;31.62;98956.13;5065771;28;20721;-69
2023/04/21 09:52:57;;;;;;;10.70;5.63;;;;;;;24.87;32.98;98955.41;5060577;28;20238;-70
2023/04/21 09:55:28;;;;;;;6.30;5.73;;;;;;;25.35;34.50;98946.88;5065822;28;20203;-72
2023/04/21 09:58:00;;;;;;;6.97;5.20;;;;;;;25.67;34.19;98942.03;5070503;28;20195;-67
2023/04/21 10:00:28;;;;;;;7.07;5.87;;;;;;;26.01;34.01;98936.91;5070471;28;20195;-66
2023/04/21 10:02:57;;;;;;;5.57;5.20;;;;;;;25.60;33.76;98889.19;5070376;28;20721;-67
2023/04/21 10:05:24;;;;;;;3.97;3.63;;;;;;;26.09;31.17;98949.75;5068257;28;20261;-69
2023/04/21 10:07:50;;;;;;;3.80;3.53;;;;;;;25.02;30.72;98939.94;5070043;28;20246;-69
2023/04/21 10:10:23;;;;;;;4.77;4.17;;;;;;;24.59;31.96;98942.09;5069564;28;21102;-67
2023/04/21 10:12:51;;;;;;;5.90;5.40;;;;;;;24.64;32.55;98937.41;5068783;28;20226;-68
2023/04/21 10:15:34;;;;;;;5.13;3.37;;;;;;;25.17;31.64;98931.44;5068372;28;20191;-67
2023/04/21 10:18:18;;;;;;;5.47;3.80;;;;;;;25.27;30.75;98936.69;5070320;28;20209;-66
2023/04/21 10:20:52;;;;;;;8.63;3.70;;;;;;;25.13;30.96;98938.59;5062663;28;20665;-67
2023/04/21 10:23:29;;;;;;;3.70;3.40;;;;;;;25.27;32.03;98898.63;5063027;28;20235;-68
2023/04/21 10:26:08;;;;;;;54.30;6.13;;;;;;;25.85;31.24;98915.78;5060660;28;20250;-66
2023/04/21 10:28:45;;;;;;;16.77;4.33;;;;;;;25.86;32.49;98918.19;5068355;28;20195;-67
2023/04/21 10:31:19;;;;;;;4.10;3.70;;;;;;;26.35;31.72;98917.25;5062195;28;20225;-67
2023/04/21 10:34:15;;;;;;;4.73;3.03;;;;;;;26.72;30.48;98916.81;5069158;28;20245;-67
2023/04/21 10:37:14;;;;;;;6.53;3.47;;;;;;;25.89;30.03;98916.78;5068688;28;20195;-71
2023/04/21 10:39:47;;;;;;;26.00;4.33;;;;;;;25.37;29.97;98920.16;5026346;28;20185;-67
2023/04/21 10:42:35;;;;;;;6.17;4.17;;;;;;;25.17;31.20;98915.13;5058641;28;20238;-68
2023/04/21 10:45:09;;;;;;;6.00;3.77;;;;;;;25.14;31.22;98904.88;5063165;28;20235;-68
2023/04/21 10:47:41;;;;;;;3.97;3.77;;;;;;;25.48;30.78;98899.78;5069332;28;20202;-67
2023/04/21 10:50:32;;;;;;;27.30;4.87;;;;;;;25.36;30.06;98911.22;5069945;28;20199;-68
2023/04/21 10:53:10;;;;;;;4.70;3.37;;;;;;;25.60;32.38;98908.22;5036493;28;20288;-68
2023/04/21 10:55:37;;;;;;;10.00;3.90;;;;;;;25.97;30.32;98914.13;5062137;28;20542;-68
2023/04/21 10:58:05;;;;;;;6.80;3.80;;;;;;;26.50;30.14;98911.41;5068954;28;20257;-68
2023/04/21 11:00:33;;;;;;;12.87;3.47;;;;;;;26.54;28.54;98891.38;5070884;28;20677;-65
2023/04/21 11:03:02;;;;;;;3.77;3.00;;;;;;;26.04;30.20;98913.72;5070936;28;20206;-65
2023/04/21 11:05:35;;;;;;;19.47;3.90;;;;;;;26.27;28.34;98907.13;5060009;28;20203;-66
2023/04/21 11:08:10;;;;;;;5.13;3.03;;;;;;;26.11;27.71;98909.44;5068118;28;20279;-66
2023/04/21 11:10:52;;;;;;;4.17;3.77;;;;;;;26.10;29.29;98912.47;5067174;28;20184;-66
2023/04/21 11:13:21;;;;;;;19.57;4.23;;;;;;;26.06;29.45;98901.41;5054239;28;20222;-67
2023/04/21 11:16:04;;;;;;;4.43;3.70;;;;;;;25.48;30.91;98906.03;5051109;28;20199;-65
2023/04/21 11:18:40;;;;;;;5.13;3.47;;;;;;;25.50;29.83;98900.28;5049737;28;20260;-65
2023/04/21 11:21:09;;;;;;;20.90;4.30;;;;;;;25.38;31.31;98900.81;5058186;28;20234;-67
2023/04/21 11:23:35;;;;;;;8.53;3.53;;;;;;;25.28;31.91;98905.69;5050322;28;20197;-67
2023/04/21 11:26:02;;;;;;;4.70;2.90;;;;;;;25.65;29.66;98913.53;5052285;28;20245;-65
2023/04/21 11:28:29;;;;;;;3.00;2.80;;;;;;;25.17;29.74;98909.69;5056052;28;20628;-67
2023/04/21 11:30:55;;;;;;;16.27;4.13;;;;;;;25.36;31.21;98902.25;5070723;28;20265;-66